sensor_id;sensor_type;location;lat;lon;timestamp;pressure;altitude;pressure_sealevel;temperature;humidity
60244;BME280;46106;51.468;5.814;2023-03-03T00:00:57;102055.66;;;0.47;100.00
60244;BME280;46106;51.468;5.814;2023-03-03T00:03:24;102046.09;;;0.29;100.00
60244;BME280;46106;51.468;5.814;2023-03-03T00:05:51;102049.69;;;0.28;100.00
60244;BME280;46106;51.468;5.814;2023-03-03T00:08:18;102058.56;;;0.34;100.00
60244;BME280;46106;51.468;5.814;2023-03-03T00:10:44;102057.69;;;0.32;100.00
60244;BME280;46106;51.468;5.814;2023-03-03T00:13:22;102063.06;;;0.32;100.00
60244;BME280;46106;51.468;5.814;2023-03-03T00:15:48;102055.81;;;0.38;100.00
60244;BME280;46106;51.468;5.814;2023-03-03T00:18:25;102065.47;;;0.51;100.00
60244;BME280;46106;51.468;5.814;2023-03-03T00:20:58;102065.63;;;0.42;100.00
60244;BME280;46106;51.468;5.814;2023-03-03T00:23:38;102071.72;;;0.53;100.00
60244;BME280;46106;51.468;5.814;2023-03-03T00:26:30;102070.91;;;0.48;100.00
60244;BME280;46106;51.468;5.814;2023-03-03T00:28:58;102076.19;;;0.52;100.00
60244;BME280;46106;51.468;5.814;2023-03-03T00:31:33;102072.56;;;0.55;100.00
60244;BME280;46106;51.468;5.814;2023-03-03T00:34:24;102071.47;;;0.65;100.00
60244;BME280;46106;51.468;5.814;2023-03-03T00:36:53;102076.13;;;0.57;100.00
60244;BME280;46106;51.468;5.814;2023-03-03T00:39:30;102073.56;;;0.51;100.00
60244;BME280;46106;51.468;5.814;2023-03-03T00:41:56;102081.47;;;0.60;100.00
60244;BME280;46106;51.468;5.814;2023-03-03T00:44:58;102082.50;;;0.53;100.00
60244;BME280;46106;51.468;5.814;2023-03-03T00:47:30;102089.66;;;0.54;100.00
60244;BME280;46106;51.468;5.814;2023-03-03T00:50:27;102087.72;;;0.61;100.00
60244;BME280;46106;51.468;5.814;2023-03-03T00:53:10;102086.84;;;0.60;100.00
60244;BME280;46106;51.468;5.814;2023-03-03T00:55:36;102076.09;;;0.59;100.00
60244;BME280;46106;51.468;5.814;2023-03-03T00:58:03;102077.09;;;0.54;100.00
60244;BME280;46106;51.468;5.814;2023-03-03T01:00:28;102089.63;;;0.55;100.00
60244;BME280;46106;51.468;5.814;2023-03-03T01:02:54;102086.94;;;0.55;100.00
60244;BME280;46106;51.468;5.814;2023-03-03T01:05:20;102095.91;;;0.58;100.00
60244;BME280;46106;51.468;5.814;2023-03-03T01:07:46;102104.06;;;0.51;100.00
60244;BME280;46106;51.468;5.814;2023-03-03T01:10:12;102102.94;;;0.65;100.00
60244;BME280;46106;51.468;5.814;2023-03-03T01:12:38;102090.59;;;0.53;100.00
60244;BME280;46106;51.468;5.814;2023-03-03T01:15:08;102104.13;;;0.48;100.00
60244;BME280;46106;51.468;5.814;2023-03-03T01:17:35;102097.69;;;0.55;100.00
60244;BME280;46106;51.468;5.814;2023-03-03T01:20:02;102104.03;;;0.54;100.00
60244;BME280;46106;51.468;5.814;2023-03-03T01:22:29;102107.94;;;0.35;100.00
60244;BME280;46106;51.468;5.814;2023-03-03T01:24:54;102112.47;;;0.33;100.00
60244;BME280;46106;51.468;5.814;2023-03-03T01:27:19;102112.53;;;0.28;100.00
60244;BME280;46106;51.468;5.814;2023-03-03T01:29:45;102109.13;;;0.17;100.00
60244;BME280;46106;51.468;5.814;2023-03-03T01:32:10;102117.28;;;0.12;100.00
60244;BME280;46106;51.468;5.814;2023-03-03T01:34:36;102105.47;;;0.21;100.00
60244;BME280;46106;51.468;5.814;2023-03-03T01:37:01;102103.56;;;0.26;100.00
60244;BME280;46106;51.468;5.814;2023-03-03T01:39:27;102104.53;;;0.24;100.00
60244;BME280;46106;51.468;5.814;2023-03-03T01:41:52;102101.84;;;0.24;100.00
60244;BME280;46106;51.468;5.814;2023-03-03T01:44:18;102106.38;;;0.22;100.00
60244;BME280;46106;51.468;5.814;2023-03-03T01:47:10;102115.34;;;0.21;100.00
60244;BME280;46106;51.468;5.814;2023-03-03T01:52:30;102109.22;;;0.09;100.00
60244;BME280;46106;51.468;5.814;2023-03-03T01:55:03;102112.75;;;0.13;100.00
60244;BME280;46106;51.468;5.814;2023-03-03T01:57:36;102090.31;;;0.14;100.00
60244;BME280;46106;51.468;5.814;2023-03-03T02:00:05;102108.16;;;0.21;100.00
60244;BME280;46106;51.468;5.814;2023-03-03T02:02:31;102101.81;;;0.25;100.00
60244;BME280;46106;51.468;5.814;2023-03-03T02:04:59;102102.56;;;0.35;100.00
60244;BME280;46106;51.468;5.814;2023-03-03T02:07:26;102105.28;;;0.32;100.00
60244;BME280;46106;51.468;5.814;2023-03-03T02:10:07;102099.63;;;0.49;100.00
60244;BME280;46106;51.468;5.814;2023-03-03T02:12:39;102104.22;;;0.42;100.00
60244;BME280;46106;51.468;5.814;2023-03-03T02:18:08;102102.53;;;0.36;100.00
60244;BME280;46106;51.468;5.814;2023-03-03T02:28:23;102107.28;;;0.19;100.00
60244;BME280;46106;51.468;5.814;2023-03-03T02:30:54;102106.47;;;0.14;100.00
60244;BME280;46106;51.468;5.814;2023-03-03T02:33:20;102108.28;;;0.13;100.00
60244;BME280;46106;51.468;5.814;2023-03-03T02:35:45;102096.59;;;0.14;100.00
60244;BME280;46106;51.468;5.814;2023-03-03T02:43:50;102116.06;;;0.32;100.00
60244;BME280;46106;51.468;5.814;2023-03-03T02:46:18;102113.53;;;0.21;100.00
60244;BME280;46106;51.468;5.814;2023-03-03T02:48:43;102114.63;;;0.08;100.00
60244;BME280;46106;51.468;5.814;2023-03-03T02:51:09;102110.13;;;0.10;100.00
60244;BME280;46106;51.468;5.814;2023-03-03T02:53:34;102106.47;;;0.14;100.00
60244;BME280;46106;51.468;5.814;2023-03-03T02:56:00;102105.47;;;0.21;100.00
60244;BME280;46106;51.468;5.814;2023-03-03T02:58:26;102100.97;;;0.22;100.00
60244;BME280;46106;51.468;5.814;2023-03-03T03:00:51;102101.06;;;0.17;100.00
60244;BME280;46106;51.468;5.814;2023-03-03T03:03:16;102104.59;;;0.19;100.00
60244;BME280;46106;51.468;5.814;2023-03-03T03:05:42;102104.53;;;0.24;100.00
60244;BME280;46106;51.468;5.814;2023-03-03T03:08:07;102110.97;;;0.15;100.00
60244;BME280;46106;51.468;5.814;2023-03-03T03:10:33;102112.63;;;0.22;100.00
60244;BME280;46106;51.468;5.814;2023-03-03T03:12:59;102090.44;;;0.06;100.00
60244;BME280;46106;51.468;5.814;2023-03-03T03:15:25;102110.84;;;0.21;100.00
60244;BME280;46106;51.468;5.814;2023-03-03T03:17:50;102119.84;;;0.20;100.00
60244;BME280;46106;51.468;5.814;2023-03-03T03:20:16;102120.72;;;0.22;100.00
60244;BME280;46106;51.468;5.814;2023-03-03T03:22:42;102122.66;;;0.12;100.00
60244;BME280;46106;51.468;5.814;2023-03-03T03:25:07;102114.34;;;0.26;100.00
60244;BME280;46106;51.468;5.814;2023-03-03T03:27:33;102122.38;;;0.29;100.00
60244;BME280;46106;51.468;5.814;2023-03-03T03:29:58;102129.66;;;0.23;100.00
60244;BME280;46106;51.468;5.814;2023-03-03T03:32:24;102129.63;;;0.26;100.00
60244;BME280;46106;51.468;5.814;2023-03-03T03:34:49;102123.38;;;0.25;100.00
60244;BME280;46106;51.468;5.814;2023-03-03T03:37:15;102129.63;;;0.26;100.00
60244;BME280;46106;51.468;5.814;2023-03-03T03:39:40;102133.00;;;0.40;100.00
60244;BME280;46106;51.468;5.814;2023-03-03T03:42:06;102126.81;;;0.35;100.00
60244;BME280;46106;51.468;5.814;2023-03-03T03:44:31;102141.25;;;0.28;100.00
60244;BME280;46106;51.468;5.814;2023-03-03T03:46:57;102124.31;;;0.20;100.00
60244;BME280;46106;51.468;5.814;2023-03-03T03:49:22;102131.56;;;0.17;100.00
60244;BME280;46106;51.468;5.814;2023-03-03T03:51:48;102136.84;;;0.24;100.00
60244;BME280;46106;51.468;5.814;2023-03-03T03:54:13;102121.63;;;0.20;100.00
60244;BME280;46106;51.468;5.814;2023-03-03T03:56:39;102127.63;;;0.40;100.00
60244;BME280;46106;51.468;5.814;2023-03-03T03:59:05;102129.28;;;0.47;100.00
60244;BME280;46106;51.468;5.814;2023-03-03T04:01:31;102132.97;;;0.42;100.00
60244;BME280;46106;51.468;5.814;2023-03-03T04:03:56;102134.66;;;0.47;100.00
60244;BME280;46106;51.468;5.814;2023-03-03T04:06:22;102130.03;;;0.55;100.00
60244;BME280;46106;51.468;5.814;2023-03-03T04:08:47;102124.91;;;0.40;100.00
60244;BME280;46106;51.468;5.814;2023-03-03T04:11:12;102133.00;;;0.40;100.00
60244;BME280;46106;51.468;5.814;2023-03-03T04:13:38;102110.56;;;0.40;100.00
60244;BME280;46106;51.468;5.814;2023-03-03T04:16:03;102116.91;;;0.35;100.00
60244;BME280;46106;51.468;5.814;2023-03-03T04:18:29;102139.25;;;0.42;100.00
60244;BME280;46106;51.468;5.814;2023-03-03T04:20:54;102133.84;;;0.42;100.00
60244;BME280;46106;51.468;5.814;2023-03-03T04:23:20;102142.78;;;0.46;100.00
60244;BME280;46106;51.468;5.814;2023-03-03T04:25:46;102130.16;;;0.51;100.00
60244;BME280;46106;51.468;5.814;2023-03-03T04:28:13;102136.53;;;0.44;100.00
60244;BME280;46106;51.468;5.814;2023-03-03T04:30:39;102143.72;;;0.43;100.00
60244;BME280;46106;51.468;5.814;2023-03-03T04:33:04;102138.38;;;0.42;100.00
60244;BME280;46106;51.468;5.814;2023-03-03T04:35:29;102130.16;;;0.49;100.00
60244;BME280;46106;51.468;5.814;2023-03-03T04:37:55;102143.34;;;0.66;100.00
60244;BME280;46106;51.468;5.814;2023-03-03T04:40:20;102135.66;;;0.43;100.00
60244;BME280;46106;51.468;5.814;2023-03-03T04:42:46;102138.03;;;0.62;100.00
60244;BME280;46106;51.468;5.814;2023-03-03T04:45:11;102132.69;;;0.59;100.00
60244;BME280;46106;51.468;5.814;2023-03-03T04:47:37;102130.25;;;0.45;100.00
60244;BME280;46106;51.468;5.814;2023-03-03T04:50:03;102133.78;;;0.47;100.00
60244;BME280;46106;51.468;5.814;2023-03-03T04:52:28;102134.56;;;0.55;100.00
60244;BME280;46106;51.468;5.814;2023-03-03T04:54:54;102135.41;;;0.57;100.00
60244;BME280;46106;51.468;5.814;2023-03-03T04:57:19;102136.44;;;0.50;100.00
60244;BME280;46106;51.468;5.814;2023-03-03T04:59:45;102140.22;;;0.38;100.00
60244;BME280;46106;51.468;5.814;2023-03-03T05:02:10;102136.53;;;0.44;100.00
60244;BME280;46106;51.468;5.814;2023-03-03T05:04:37;102141.69;;;0.59;100.00
60244;BME280;46106;51.468;5.814;2023-03-03T05:07:03;102144.28;;;0.62;100.00
60244;BME280;46106;51.468;5.814;2023-03-03T05:09:29;102143.41;;;0.62;100.00
60244;BME280;46106;51.468;5.814;2023-03-03T05:11:54;102139.13;;;0.50;100.00
60244;BME280;46106;51.468;5.814;2023-03-03T05:14:20;102138.28;;;0.46;100.00
60244;BME280;46106;51.468;5.814;2023-03-03T05:16:45;102133.84;;;0.44;100.00
60244;BME280;46106;51.468;5.814;2023-03-03T05:19:11;102144.44;;;0.56;100.00
60244;BME280;46106;51.468;5.814;2023-03-03T05:21:36;102148.00;;;0.57;100.00
60244;BME280;46106;51.468;5.814;2023-03-03T05:24:07;102148.19;;;0.44;100.00
60244;BME280;46106;51.468;5.814;2023-03-03T05:26:32;102146.22;;;0.54;100.00
60244;BME280;46106;51.468;5.814;2023-03-03T05:28:58;102156.13;;;0.53;100.00
60244;BME280;46106;51.468;5.814;2023-03-03T05:31:23;102155.19;;;0.58;100.00
60244;BME280;46106;51.468;5.814;2023-03-03T05:33:51;102149.78;;;0.58;100.00
60244;BME280;46106;51.468;5.814;2023-03-03T05:36:17;102148.03;;;0.53;100.00
60244;BME280;46106;51.468;5.814;2023-03-03T05:38:42;102160.59;;;0.56;100.00
60244;BME280;46106;51.468;5.814;2023-03-03T05:41:08;102154.97;;;0.70;100.00
60244;BME280;46106;51.468;5.814;2023-03-03T05:43:34;102156.56;;;0.80;100.00
60244;BME280;46106;51.468;5.814;2023-03-03T05:45:59;102155.19;;;0.58;100.00
60244;BME280;46106;51.468;5.814;2023-03-03T05:48:25;102149.69;;;0.62;100.00
60244;BME280;46106;51.468;5.814;2023-03-03T05:50:51;102162.03;;;0.77;100.00
60244;BME280;46106;51.468;5.814;2023-03-03T05:53:16;102160.41;;;0.65;100.00
60244;BME280;46106;51.468;5.814;2023-03-03T05:55:42;102172.25;;;0.57;100.00
60244;BME280;46106;51.468;5.814;2023-03-03T05:58:07;102155.16;;;0.59;100.00
60244;BME280;46106;51.468;5.814;2023-03-03T06:00:33;102159.72;;;0.52;100.00
60244;BME280;46106;51.468;5.814;2023-03-03T06:03:00;102166.06;;;0.50;100.00
60244;BME280;46106;51.468;5.814;2023-03-03T06:05:25;102169.50;;;0.60;100.00
60244;BME280;46106;51.468;5.814;2023-03-03T06:07:51;102160.63;;;0.53;100.00
60244;BME280;46106;51.468;5.814;2023-03-03T06:10:16;102176.63;;;0.62;100.00
60244;BME280;46106;51.468;5.814;2023-03-03T06:12:42;102164.94;;;0.63;100.00
60244;BME280;46106;51.468;5.814;2023-03-03T06:15:08;102160.31;;;0.73;100.00
60244;BME280;46106;51.468;5.814;2023-03-03T06:17:34;102177.41;;;0.70;100.00
60244;BME280;46106;51.468;5.814;2023-03-03T06:20:00;102172.81;;;0.77;100.00
60244;BME280;46106;51.468;5.814;2023-03-03T06:22:26;102171.00;;;0.79;100.00
60244;BME280;46106;51.468;5.814;2023-03-03T06:24:51;102177.31;;;0.75;100.00
60244;BME280;46106;51.468;5.814;2023-03-03T06:27:17;102175.63;;;0.71;100.00
60244;BME280;46106;51.468;5.814;2023-03-03T06:29:43;102180.97;;;0.72;100.00
60244;BME280;46106;51.468;5.814;2023-03-03T06:32:08;102180.91;;;0.77;100.00
60244;BME280;46106;51.468;5.814;2023-03-03T06:34:34;102195.28;;;0.76;100.00
60244;BME280;46106;51.468;5.814;2023-03-03T06:36:59;102187.25;;;0.73;100.00
60244;BME280;46106;51.468;5.814;2023-03-03T06:39:25;102203.28;;;0.82;100.00
60244;BME280;46106;51.468;5.814;2023-03-03T06:41:50;102205.19;;;0.77;100.00
60244;BME280;46106;51.468;5.814;2023-03-03T06:44:16;102197.03;;;0.79;100.00
60244;BME280;46106;51.468;5.814;2023-03-03T06:46:41;102200.25;;;1.02;100.00
60244;BME280;46106;51.468;5.814;2023-03-03T06:49:07;102186.19;;;0.83;100.00
60244;BME280;46106;51.468;5.814;2023-03-03T06:51:37;102218.50;;;0.85;100.00
60244;BME280;46106;51.468;5.814;2023-03-03T06:54:33;102219.06;;;1.05;100.00
60244;BME280;46106;51.468;5.814;2023-03-03T06:57:04;102219.88;;;1.10;100.00
60244;BME280;46106;51.468;5.814;2023-03-03T06:59:32;102229.00;;;1.03;100.00
60244;BME280;46106;51.468;5.814;2023-03-03T07:01:57;102228.16;;;0.98;100.00
60244;BME280;46106;51.468;5.814;2023-03-03T07:04:31;102232.66;;;0.99;100.00
60244;BME280;46106;51.468;5.814;2023-03-03T07:07:20;102224.69;;;0.91;100.00
60244;BME280;46106;51.468;5.814;2023-03-03T07:09:48;102235.31;;;1.01;100.00
60244;BME280;46106;51.468;5.814;2023-03-03T07:12:19;102217.41;;;0.95;100.00
60244;BME280;46106;51.468;5.814;2023-03-03T07:15:00;102222.78;;;0.98;100.00
60244;BME280;46106;51.468;5.814;2023-03-03T07:17:26;102211.28;;;0.87;100.00
60244;BME280;46106;51.468;5.814;2023-03-03T07:19:52;102233.38;;;1.10;100.00
60244;BME280;46106;51.468;5.814;2023-03-03T07:22:20;102232.47;;;1.10;100.00
60244;BME280;46106;51.468;5.814;2023-03-03T07:24:59;102231.63;;;1.06;100.00
60244;BME280;46106;51.468;5.814;2023-03-03T07:27:29;102241.44;;;1.10;100.00
60244;BME280;46106;51.468;5.814;2023-03-03T07:30:25;102240.38;;;1.19;100.00
60244;BME280;46106;51.468;5.814;2023-03-03T07:32:53;102240.31;;;1.24;100.00
60244;BME280;46106;51.468;5.814;2023-03-03T07:35:37;102236.81;;;1.19;100.00
60244;BME280;46106;51.468;5.814;2023-03-03T07:40:53;102244.09;;;1.14;100.00
60244;BME280;46106;51.468;5.814;2023-03-03T07:43:30;102251.94;;;1.27;100.00
60244;BME280;46106;51.468;5.814;2023-03-03T07:48:41;102256.19;;;1.41;100.00
60244;BME280;46106;51.468;5.814;2023-03-03T07:51:28;102252.53;;;1.45;100.00
60244;BME280;46106;51.468;5.814;2023-03-03T07:56:36;102267.72;;;1.51;100.00
60244;BME280;46106;51.468;5.814;2023-03-03T07:59:16;102262.91;;;1.67;100.00
60244;BME280;46106;51.468;5.814;2023-03-03T08:01:45;102271.19;;;1.57;100.00
60244;BME280;46106;51.468;5.814;2023-03-03T08:04:28;102273.69;;;1.68;100.00
60244;BME280;46106;51.468;5.814;2023-03-03T08:07:01;102261.13;;;1.65;100.00
60244;BME280;46106;51.468;5.814;2023-03-03T08:12:38;102276.38;;;1.70;100.00
60244;BME280;46106;51.468;5.814;2023-03-03T08:15:30;102280.94;;;1.66;100.00
60244;BME280;46106;51.468;5.814;2023-03-03T08:17:57;102275.47;;;1.71;100.00
60244;BME280;46106;51.468;5.814;2023-03-03T08:20:42;102287.72;;;1.87;100.00
60244;BME280;46106;51.468;5.814;2023-03-03T08:23:10;102286.09;;;1.77;100.00
60244;BME280;46106;51.468;5.814;2023-03-03T08:25:35;102283.34;;;1.80;100.00
60244;BME280;46106;51.468;5.814;2023-03-03T08:28:04;102286.00;;;1.83;100.00
60244;BME280;46106;51.468;5.814;2023-03-03T08:30:29;102287.81;;;1.82;100.00
60244;BME280;46106;51.468;5.814;2023-03-03T08:32:56;102287.34;;;2.06;100.00
60244;BME280;46106;51.468;5.814;2023-03-03T08:35:22;102288.31;;;2.01;100.00
60244;BME280;46106;51.468;5.814;2023-03-03T08:37:47;102292.00;;;1.99;100.00
60244;BME280;46106;51.468;5.814;2023-03-03T08:40:13;102298.00;;;2.13;100.00
60244;BME280;46106;51.468;5.814;2023-03-03T08:42:38;102299.13;;;2.01;100.00
60244;BME280;46106;51.468;5.814;2023-03-03T08:45:04;102298.34;;;1.96;100.00
60244;BME280;46106;51.468;5.814;2023-03-03T08:47:29;102306.28;;;2.04;100.00
60244;BME280;46106;51.468;5.814;2023-03-03T08:49:55;102308.88;;;2.10;100.00
60244;BME280;46106;51.468;5.814;2023-03-03T08:52:20;102303.22;;;2.23;100.00
60244;BME280;46106;51.468;5.814;2023-03-03T08:54:45;102305.94;;;2.21;100.00
60244;BME280;46106;51.468;5.814;2023-03-03T08:57:11;102322.69;;;2.38;100.00
60244;BME280;46106;51.468;5.814;2023-03-03T08:59:37;102311.16;;;2.30;100.00
60244;BME280;46106;51.468;5.814;2023-03-03T09:02:06;102316.44;;;2.36;100.00
60244;BME280;46106;51.468;5.814;2023-03-03T09:04:33;102319.25;;;2.32;100.00
60244;BME280;46106;51.468;5.814;2023-03-03T09:06:58;102318.94;;;2.46;100.00
60244;BME280;46106;51.468;5.814;2023-03-03T09:09:27;102316.22;;;2.46;100.00
60244;BME280;46106;51.468;5.814;2023-03-03T09:11:57;102319.88;;;2.45;100.00
60244;BME280;46106;51.468;5.814;2023-03-03T09:14:27;102322.50;;;2.49;100.00
60244;BME280;46106;51.468;5.814;2023-03-03T09:16:54;102322.34;;;2.54;100.00
60244;BME280;46106;51.468;5.814;2023-03-03T09:19:31;102315.53;;;2.36;100.00
60244;BME280;46106;51.468;5.814;2023-03-03T09:24:46;102325.63;;;2.70;100.00
60244;BME280;46106;51.468;5.814;2023-03-03T09:27:27;102330.16;;;2.69;100.00
60244;BME280;46106;51.468;5.814;2023-03-03T09:29:54;102327.88;;;2.90;100.00
60244;BME280;46106;51.468;5.814;2023-03-03T09:32:36;102322.56;;;2.85;100.00
60244;BME280;46106;51.468;5.814;2023-03-03T09:35:36;102320.50;;;2.97;100.00
60244;BME280;46106;51.468;5.814;2023-03-03T09:38:25;102319.50;;;3.01;100.00
60244;BME280;46106;51.468;5.814;2023-03-03T09:52:16;102337.13;;;3.19;100.00
60244;BME280;46106;51.468;5.814;2023-03-03T09:55:07;102339.16;;;3.46;100.00
60244;BME280;46106;51.468;5.814;2023-03-03T09:57:40;102338.44;;;3.38;100.00
60244;BME280;46106;51.468;5.814;2023-03-03T10:00:50;102339.38;;;3.37;100.00
60244;BME280;46106;51.468;5.814;2023-03-03T10:09:38;102337.38;;;3.44;100.00
60244;BME280;46106;51.468;5.814;2023-03-03T10:17:50;102336.63;;;3.73;100.00
60244;BME280;46106;51.468;5.814;2023-03-03T10:22:59;102347.88;;;3.92;100.00
60244;BME280;46106;51.468;5.814;2023-03-03T10:25:39;102346.16;;;3.88;100.00
60244;BME280;46106;51.468;5.814;2023-03-03T10:39:34;102348.97;;;4.18;100.00
60244;BME280;46106;51.468;5.814;2023-03-03T10:42:08;102357.69;;;4.29;100.00
60244;BME280;46106;51.468;5.814;2023-03-03T10:50:23;102349.63;;;4.57;100.00
60244;BME280;46106;51.468;5.814;2023-03-03T10:53:02;102344.34;;;4.53;100.00
60244;BME280;46106;51.468;5.814;2023-03-03T11:07:38;102347.13;;;4.81;100.00
60244;BME280;46106;51.468;5.814;2023-03-03T11:10:27;102344.09;;;4.60;100.00
60244;BME280;46106;51.468;5.814;2023-03-03T11:18:09;102342.69;;;4.77;100.00
60244;BME280;46106;51.468;5.814;2023-03-03T11:23:46;102338.22;;;5.32;100.00
60244;BME280;46106;51.468;5.814;2023-03-03T11:26:48;102337.06;;;5.41;100.00
60244;BME280;46106;51.468;5.814;2023-03-03T11:32:26;102323.13;;;5.50;100.00
60244;BME280;46106;51.468;5.814;2023-03-03T11:35:24;102326.06;;;5.44;100.00
60244;BME280;46106;51.468;5.814;2023-03-03T11:40:20;102323.13;;;6.53;100.00
60244;BME280;46106;51.468;5.814;2023-03-03T11:45:25;102316.38;;;7.09;100.00
60244;BME280;46106;51.468;5.814;2023-03-03T11:48:01;102337.66;;;6.28;100.00
60244;BME280;46106;51.468;5.814;2023-03-03T11:50:35;102322.75;;;6.62;100.00
60244;BME280;46106;51.468;5.814;2023-03-03T11:55:38;102324.81;;;6.06;100.00
60244;BME280;46106;51.468;5.814;2023-03-03T11:58:18;102310.50;;;6.27;100.00
60244;BME280;46106;51.468;5.814;2023-03-03T12:00:53;102314.97;;;6.04;100.00
60244;BME280;46106;51.468;5.814;2023-03-03T12:03:33;102316.28;;;5.92;100.00
60244;BME280;46106;51.468;5.814;2023-03-03T12:16:56;102301.16;;;5.83;100.00
60244;BME280;46106;51.468;5.814;2023-03-03T12:22:12;102310.50;;;6.01;100.00
60244;BME280;46106;51.468;5.814;2023-03-03T12:36:19;102300.41;;;6.05;100.00
60244;BME280;46106;51.468;5.814;2023-03-03T12:39:15;102296.25;;;6.20;100.00
60244;BME280;46106;51.468;5.814;2023-03-03T12:50:12;102286.81;;;6.30;100.00
60244;BME280;46106;51.468;5.814;2023-03-03T12:53:00;102296.13;;;6.23;100.00
60244;BME280;46106;51.468;5.814;2023-03-03T13:00:51;102283.28;;;6.03;100.00
60244;BME280;46106;51.468;5.814;2023-03-03T13:03:41;102284.59;;;6.63;100.00
60244;BME280;46106;51.468;5.814;2023-03-03T13:06:29;102277.69;;;6.55;100.00
60244;BME280;46106;51.468;5.814;2023-03-03T13:09:21;102278.16;;;6.66;100.00
60244;BME280;46106;51.468;5.814;2023-03-03T13:12:17;102268.34;;;6.84;100.00
60244;BME280;46106;51.468;5.814;2023-03-03T13:15:11;102263.91;;;6.59;100.00
60244;BME280;46106;51.468;5.814;2023-03-03T13:20:52;102273.88;;;6.59;100.00
60244;BME280;46106;51.468;5.814;2023-03-03T13:29:02;102268.44;;;6.59;100.00
60244;BME280;46106;51.468;5.814;2023-03-03T13:31:32;102263.50;;;6.47;100.00
60244;BME280;46106;51.468;5.814;2023-03-03T13:34:00;102259.69;;;6.74;100.00
60244;BME280;46106;51.468;5.814;2023-03-03T13:39:21;102261.53;;;6.96;100.00
60244;BME280;46106;51.468;5.814;2023-03-03T13:47:02;102263.63;;;6.89;100.00
60244;BME280;46106;51.468;5.814;2023-03-03T13:52:10;102254.34;;;6.71;100.00
60244;BME280;46106;51.468;5.814;2023-03-03T14:00:20;102256.56;;;6.84;100.00
60244;BME280;46106;51.468;5.814;2023-03-03T14:05:40;102255.06;;;6.76;100.00
60244;BME280;46106;51.468;5.814;2023-03-03T14:08:13;102251.75;;;6.90;100.00
60244;BME280;46106;51.468;5.814;2023-03-03T14:13:28;102252.38;;;6.53;100.00
60244;BME280;46106;51.468;5.814;2023-03-03T14:19:00;102244.63;;;6.88;100.00
60244;BME280;46106;51.468;5.814;2023-03-03T14:25:13;102244.38;;;6.94;100.00
60244;BME280;46106;51.468;5.814;2023-03-03T14:30:38;102239.81;;;6.94;100.00
60244;BME280;46106;51.468;5.814;2023-03-03T14:38:35;102239.50;;;7.23;100.00
60244;BME280;46106;51.468;5.814;2023-03-03T14:43:40;102233.38;;;7.17;100.00
60244;BME280;46106;51.468;5.814;2023-03-03T14:48:55;102221.84;;;7.33;100.00
60244;BME280;46106;51.468;5.814;2023-03-03T14:53:54;102222.78;;;7.32;100.00
60244;BME280;46106;51.468;5.814;2023-03-03T14:56:27;102224.63;;;7.52;100.00
60244;BME280;46106;51.468;5.814;2023-03-03T15:01:39;102220.31;;;7.26;100.00
60244;BME280;46106;51.468;5.814;2023-03-03T15:06:53;102211.22;;;7.27;100.00
60244;BME280;46106;51.468;5.814;2023-03-03T15:09:33;102214.34;;;7.38;100.00
60244;BME280;46106;51.468;5.814;2023-03-03T15:12:17;102207.88;;;7.41;100.00
60244;BME280;46106;51.468;5.814;2023-03-03T15:14:45;102199.56;;;7.23;100.00
60244;BME280;46106;51.468;5.814;2023-03-03T15:22:51;102198.59;;;7.24;100.00
60244;BME280;46106;51.468;5.814;2023-03-03T15:28:35;102196.91;;;6.99;100.00
60244;BME280;46106;51.468;5.814;2023-03-03T15:31:33;102191.09;;;7.09;100.00
60244;BME280;46106;51.468;5.814;2023-03-03T15:34:08;102197.84;;;7.21;100.00
60244;BME280;46106;51.468;5.814;2023-03-03T15:36:55;102182.56;;;7.16;100.00
60244;BME280;46106;51.468;5.814;2023-03-03T15:42:27;102182.00;;;7.08;100.00
60244;BME280;46106;51.468;5.814;2023-03-03T15:48:30;102181.06;;;7.09;100.00
60244;BME280;46106;51.468;5.814;2023-03-03T15:56:53;102181.88;;;6.91;100.00
60244;BME280;46106;51.468;5.814;2023-03-03T16:02:49;102167.94;;;6.76;100.00
60244;BME280;46106;51.468;5.814;2023-03-03T16:08:15;102171.78;;;6.93;100.00
60244;BME280;46106;51.468;5.814;2023-03-03T16:19:42;102162.03;;;6.44;100.00
60244;BME280;46106;51.468;5.814;2023-03-03T16:22:47;102171.75;;;6.50;100.00
60244;BME280;46106;51.468;5.814;2023-03-03T16:33:10;102159.66;;;6.35;100.00
60244;BME280;46106;51.468;5.814;2023-03-03T16:35:45;102160.88;;;6.28;100.00
60244;BME280;46106;51.468;5.814;2023-03-03T16:38:30;102160.53;;;6.36;100.00
60244;BME280;46106;51.468;5.814;2023-03-03T16:41:00;102169.84;;;6.30;100.00
60244;BME280;46106;51.468;5.814;2023-03-03T16:46:45;102168.63;;;6.37;100.00
60244;BME280;46106;51.468;5.814;2023-03-03T16:51:47;102183.06;;;6.39;100.00
60244;BME280;46106;51.468;5.814;2023-03-03T16:54:39;102180.34;;;6.39;100.00
60244;BME280;46106;51.468;5.814;2023-03-03T17:00:17;102182.13;;;6.40;100.00
60244;BME280;46106;51.468;5.814;2023-03-03T17:03:02;102192.19;;;6.38;100.00
60244;BME280;46106;51.468;5.814;2023-03-03T17:05:59;102184.25;;;6.32;100.00
60244;BME280;46106;51.468;5.814;2023-03-03T17:16:49;102184.66;;;6.45;100.00
60244;BME280;46106;51.468;5.814;2023-03-03T17:19:27;102191.00;;;6.68;100.00
60244;BME280;46106;51.468;5.814;2023-03-03T17:22:25;102197.44;;;6.43;100.00
60244;BME280;46106;51.468;5.814;2023-03-03T17:25:04;102194.59;;;6.46;100.00
60244;BME280;46106;51.468;5.814;2023-03-03T17:30:44;102201.50;;;6.55;100.00
60244;BME280;46106;51.468;5.814;2023-03-03T17:38:53;102217.31;;;6.45;100.00
60244;BME280;46106;51.468;5.814;2023-03-03T17:46:58;102219.28;;;6.41;100.00
60244;BME280;46106;51.468;5.814;2023-03-03T18:07:35;102256.50;;;6.16;100.00
60244;BME280;46106;51.468;5.814;2023-03-03T18:18:15;102241.06;;;6.16;100.00